Aliceville, AL

8:34 AM CST on March 05, 2015 (GMT -0600)
Tuscaloosa Municipal | Change Station
CLOSE
Current Station
Airport
Location: Tuscaloosa,
Elevation: 171 ft
Nearby Weather Stations
Active Advisory: Winter Storm Warning

Elev 171 ft 33.22 °N, 87.61 °W | Updated 3 minutes ago

Rain
Rain
37 °F
Feels Like 29 °F
N
13
Wind Variable Wind from North

Today
High -- | Low -- °F
--% Chance of Precip.
Yesterday
High -- | Low -- °F
Precip. -- in
6:16 AM 5:52 PM
Full, 100% visible
Pressure 30.20 in
Visibility 5.0 miles
Clouds Few 900 ft
Mostly Cloudy 4800 ft
Overcast 8000 ft
Windchill 29 °F
Dew Point 33 °F
Humidity 86%
Rainfall 0.44 in
Snow Depth Not available.
UV 1 out of 12
Pollen .60 out of 12
Air Quality Not available.
Flu Activity Not available.
SPECI KTCL 051431Z 36011KT 5SM -RA BR FEW009 BKN048 OVC080 03/01 A3020 RMK AO2 P0004 T00280006

More Conditions Fewer Conditions

Pressure 30.20 in
Visibility 5.0 miles
Clouds Few 900 ft
Mostly Cloudy 4800 ft
Overcast 8000 ft
Windchill 29 °F
Dew Point 33 °F
Humidity 86%
Rainfall 0.44 in
Snow Depth Not available.
UV 1 out of 12
Pollen .60 out of 12
Air Quality Not available.
Flu Activity Not available.
SPECI KTCL 051431Z 36011KT 5SM -RA BR FEW009 BKN048 OVC080 03/01 A3020 RMK AO2 P0004 T00280006

More Conditions Fewer Conditions

10-Day Weather Forecast

Almanac

Astronomy

Mar. 05, 2015 Rise Set
Actual Time
Civil Twilight
Nautical Twilight
Astronomical Twilight
Moon
Length of Visible Light
Length of Day
Tomorrow will be .
, % of the Moon is Illuminated

Today's Extremes

State Highs State Lows

Community

WunderPhotos

Upload Photos

1,802,782 photos uploaded!

WunderBlogs® & News

Nearby

Air Quality

  Air Quality AQ Index Pollutant
Not available.

Snow Depth

Station Depth Elevation

Earthquake Activity

City Distance Mag. Time & Date
Minimum magnitude displayed is 2.5.

Coastal Water Temperatures

Place Temperature

Nearby Weather Stations

Winter Storm Warning
Statement as of 7:17 AM CST on March 05, 2015

... Winter Storm Warning in effect until 3 PM CST this afternoon...

The National Weather Service in Birmingham has issued a Winter
Storm Warning for sleet and freezing rain... which is in effect
until 3 PM CST this afternoon. The Freezing Rain Advisory is no
longer in effect.

* Timing... through 3 PM this afternoon.


* Location... areas along and north of Gardendale to Aliceville.

* Accumulations... sleet accumulation one half to three quarters of
an inch and freezing rain... ice accumulation of up to a quarter
of an inch.

Precautionary/preparedness actions...

A Winter Storm Warning for sleet means that a winter storm system
is impacting the area with significant amounts of sleet. Travel is
likely to be severely impacted.